sensor_id;sensor_type;location;lat;lon;timestamp;P1;durP1;ratioP1;P2;durP2;ratioP2
60935;SDS011;46804;51.786;19.520;2023-02-18T00:01:24;2.88;;;1.48;;
60935;SDS011;46804;51.786;19.520;2023-02-18T00:05:25;2.22;;;1.23;;
60935;SDS011;46804;51.786;19.520;2023-02-18T00:09:28;4.63;;;1.60;;
60935;SDS011;46804;51.786;19.520;2023-02-18T00:13:28;3.42;;;1.25;;
60935;SDS011;46804;51.786;19.520;2023-02-18T00:17:29;2.88;;;1.27;;
60935;SDS011;46804;51.786;19.520;2023-02-18T00:21:31;3.17;;;1.13;;
60935;SDS011;46804;51.786;19.520;2023-02-18T00:25:33;3.10;;;1.55;;
60935;SDS011;46804;51.786;19.520;2023-02-18T00:29:34;2.60;;;1.38;;
60935;SDS011;46804;51.786;19.520;2023-02-18T00:33:35;4.15;;;1.33;;
60935;SDS011;46804;51.786;19.520;2023-02-18T00:37:36;4.68;;;1.38;;
60935;SDS011;46804;51.786;19.520;2023-02-18T00:41:37;3.25;;;1.13;;
60935;SDS011;46804;51.786;19.520;2023-02-18T00:45:38;8.25;;;1.35;;
60935;SDS011;46804;51.786;19.520;2023-02-18T00:49:39;7.38;;;1.23;;
60935;SDS011;46804;51.786;19.520;2023-02-18T00:53:40;3.47;;;1.63;;
60935;SDS011;46804;51.786;19.520;2023-02-18T00:57:41;2.53;;;1.42;;
60935;SDS011;46804;51.786;19.520;2023-02-18T01:01:41;7.85;;;2.08;;
60935;SDS011;46804;51.786;19.520;2023-02-18T01:05:43;3.30;;;1.48;;
60935;SDS011;46804;51.786;19.520;2023-02-18T01:09:44;5.10;;;2.13;;
60935;SDS011;46804;51.786;19.520;2023-02-18T01:13:45;5.30;;;1.60;;
60935;SDS011;46804;51.786;19.520;2023-02-18T01:17:46;4.93;;;1.73;;
60935;SDS011;46804;51.786;19.520;2023-02-18T01:21:47;6.07;;;1.65;;
60935;SDS011;46804;51.786;19.520;2023-02-18T01:25:47;5.10;;;1.63;;
60935;SDS011;46804;51.786;19.520;2023-02-18T01:29:48;1.67;;;1.17;;
60935;SDS011;46804;51.786;19.520;2023-02-18T01:33:49;7.82;;;1.60;;
60935;SDS011;46804;51.786;19.520;2023-02-18T01:37:50;6.97;;;2.08;;
60935;SDS011;46804;51.786;19.520;2023-02-18T01:41:51;3.20;;;1.25;;
60935;SDS011;46804;51.786;19.520;2023-02-18T01:50:15;4.40;;;2.20;;
60935;SDS011;46804;51.786;19.520;2023-02-18T01:54:30;12.88;;;1.85;;
60935;SDS011;46804;51.786;19.520;2023-02-18T01:58:33;6.80;;;1.48;;
60935;SDS011;46804;51.786;19.520;2023-02-18T02:02:35;6.15;;;2.35;;
60935;SDS011;46804;51.786;19.520;2023-02-18T02:06:38;5.03;;;1.50;;
60935;SDS011;46804;51.786;19.520;2023-02-18T02:15:04;4.63;;;1.48;;
60935;SDS011;46804;51.786;19.520;2023-02-18T02:41:18;7.65;;;2.17;;
60935;SDS011;46804;51.786;19.520;2023-02-18T02:49:40;5.47;;;1.80;;
60935;SDS011;46804;51.786;19.520;2023-02-18T02:53:48;5.53;;;1.38;;
60935;SDS011;46804;51.786;19.520;2023-02-18T02:57:51;9.15;;;1.90;;
60935;SDS011;46804;51.786;19.520;2023-02-18T03:10:57;7.75;;;1.70;;
60935;SDS011;46804;51.786;19.520;2023-02-18T03:19:13;6.25;;;1.75;;
60935;SDS011;46804;51.786;19.520;2023-02-18T03:23:24;8.93;;;2.22;;
60935;SDS011;46804;51.786;19.520;2023-02-18T03:27:31;7.45;;;1.92;;
60935;SDS011;46804;51.786;19.520;2023-02-18T03:31:34;7.45;;;1.98;;
60935;SDS011;46804;51.786;19.520;2023-02-18T03:35:37;4.68;;;1.48;;
60935;SDS011;46804;51.786;19.520;2023-02-18T03:39:39;3.22;;;1.67;;
60935;SDS011;46804;51.786;19.520;2023-02-18T03:43:50;4.70;;;1.45;;
60935;SDS011;46804;51.786;19.520;2023-02-18T03:47:51;5.22;;;2.05;;
60935;SDS011;46804;51.786;19.520;2023-02-18T03:51:52;5.10;;;1.58;;
60935;SDS011;46804;51.786;19.520;2023-02-18T03:55:53;5.93;;;2.08;;
60935;SDS011;46804;51.786;19.520;2023-02-18T03:59:54;3.33;;;1.60;;
60935;SDS011;46804;51.786;19.520;2023-02-18T04:03:54;4.65;;;1.90;;
60935;SDS011;46804;51.786;19.520;2023-02-18T04:07:55;7.82;;;2.58;;
60935;SDS011;46804;51.786;19.520;2023-02-18T04:11:56;9.75;;;3.33;;
60935;SDS011;46804;51.786;19.520;2023-02-18T04:15:57;13.07;;;2.30;;
60935;SDS011;46804;51.786;19.520;2023-02-18T04:19:57;3.78;;;1.73;;
60935;SDS011;46804;51.786;19.520;2023-02-18T04:23:59;6.93;;;1.90;;
60935;SDS011;46804;51.786;19.520;2023-02-18T04:28:00;7.95;;;2.28;;
60935;SDS011;46804;51.786;19.520;2023-02-18T04:32:01;3.20;;;1.10;;
60935;SDS011;46804;51.786;19.520;2023-02-18T04:36:01;5.25;;;1.70;;
60935;SDS011;46804;51.786;19.520;2023-02-18T04:40:03;6.95;;;2.38;;
60935;SDS011;46804;51.786;19.520;2023-02-18T04:44:04;6.05;;;1.63;;
60935;SDS011;46804;51.786;19.520;2023-02-18T04:48:05;5.10;;;2.10;;
60935;SDS011;46804;51.786;19.520;2023-02-18T04:52:06;8.75;;;2.53;;
60935;SDS011;46804;51.786;19.520;2023-02-18T04:56:07;6.30;;;1.63;;
60935;SDS011;46804;51.786;19.520;2023-02-18T05:00:08;9.20;;;2.08;;
60935;SDS011;46804;51.786;19.520;2023-02-18T05:04:13;6.47;;;1.95;;
60935;SDS011;46804;51.786;19.520;2023-02-18T05:08:14;5.38;;;1.92;;
60935;SDS011;46804;51.786;19.520;2023-02-18T05:12:15;10.88;;;2.22;;
60935;SDS011;46804;51.786;19.520;2023-02-18T05:16:16;9.50;;;1.85;;
60935;SDS011;46804;51.786;19.520;2023-02-18T05:20:17;5.50;;;1.70;;
60935;SDS011;46804;51.786;19.520;2023-02-18T05:24:18;9.05;;;1.95;;
60935;SDS011;46804;51.786;19.520;2023-02-18T05:28:18;5.88;;;2.35;;
60935;SDS011;46804;51.786;19.520;2023-02-18T05:32:19;8.98;;;2.13;;
60935;SDS011;46804;51.786;19.520;2023-02-18T05:36:20;5.70;;;1.73;;
60935;SDS011;46804;51.786;19.520;2023-02-18T05:40:20;4.88;;;1.48;;
60935;SDS011;46804;51.786;19.520;2023-02-18T05:44:21;8.10;;;2.40;;
60935;SDS011;46804;51.786;19.520;2023-02-18T05:48:32;12.82;;;2.47;;
60935;SDS011;46804;51.786;19.520;2023-02-18T05:52:33;7.50;;;2.25;;
60935;SDS011;46804;51.786;19.520;2023-02-18T05:56:34;3.92;;;1.50;;
60935;SDS011;46804;51.786;19.520;2023-02-18T06:00:34;10.35;;;2.53;;
60935;SDS011;46804;51.786;19.520;2023-02-18T06:04:35;2.80;;;1.55;;
60935;SDS011;46804;51.786;19.520;2023-02-18T06:08:36;14.10;;;2.53;;
60935;SDS011;46804;51.786;19.520;2023-02-18T06:12:37;6.90;;;1.63;;
60935;SDS011;46804;51.786;19.520;2023-02-18T06:16:37;8.57;;;2.15;;
60935;SDS011;46804;51.786;19.520;2023-02-18T06:20:38;13.02;;;3.25;;
60935;SDS011;46804;51.786;19.520;2023-02-18T06:24:39;7.45;;;1.90;;
60935;SDS011;46804;51.786;19.520;2023-02-18T06:28:40;9.05;;;2.83;;
60935;SDS011;46804;51.786;19.520;2023-02-18T06:32:40;3.13;;;1.73;;
60935;SDS011;46804;51.786;19.520;2023-02-18T06:36:41;6.00;;;1.63;;
60935;SDS011;46804;51.786;19.520;2023-02-18T06:40:42;9.27;;;2.00;;
60935;SDS011;46804;51.786;19.520;2023-02-18T06:44:46;5.88;;;2.30;;
60935;SDS011;46804;51.786;19.520;2023-02-18T06:48:47;7.65;;;2.22;;
60935;SDS011;46804;51.786;19.520;2023-02-18T06:52:47;6.25;;;2.00;;
60935;SDS011;46804;51.786;19.520;2023-02-18T06:56:48;4.78;;;1.80;;
60935;SDS011;46804;51.786;19.520;2023-02-18T07:00:50;11.30;;;2.30;;
60935;SDS011;46804;51.786;19.520;2023-02-18T07:04:51;7.10;;;2.90;;
60935;SDS011;46804;51.786;19.520;2023-02-18T07:08:51;4.18;;;1.77;;
60935;SDS011;46804;51.786;19.520;2023-02-18T07:12:52;7.43;;;2.20;;
60935;SDS011;46804;51.786;19.520;2023-02-18T07:16:53;7.38;;;1.75;;
60935;SDS011;46804;51.786;19.520;2023-02-18T07:20:53;6.70;;;2.30;;
60935;SDS011;46804;51.786;19.520;2023-02-18T07:24:54;7.32;;;1.85;;
60935;SDS011;46804;51.786;19.520;2023-02-18T07:28:55;5.53;;;2.08;;
60935;SDS011;46804;51.786;19.520;2023-02-18T07:32:56;9.93;;;2.88;;
60935;SDS011;46804;51.786;19.520;2023-02-18T07:36:56;11.55;;;2.70;;
60935;SDS011;46804;51.786;19.520;2023-02-18T07:40:57;5.95;;;1.92;;
60935;SDS011;46804;51.786;19.520;2023-02-18T07:44:58;4.20;;;1.83;;
60935;SDS011;46804;51.786;19.520;2023-02-18T07:48:59;6.85;;;2.33;;
60935;SDS011;46804;51.786;19.520;2023-02-18T07:53:00;8.65;;;2.38;;
60935;SDS011;46804;51.786;19.520;2023-02-18T07:57:01;12.23;;;3.13;;
60935;SDS011;46804;51.786;19.520;2023-02-18T08:01:06;10.18;;;2.50;;
60935;SDS011;46804;51.786;19.520;2023-02-18T08:05:08;7.60;;;2.17;;
60935;SDS011;46804;51.786;19.520;2023-02-18T08:09:09;7.68;;;2.53;;
60935;SDS011;46804;51.786;19.520;2023-02-18T08:13:10;9.05;;;2.72;;
60935;SDS011;46804;51.786;19.520;2023-02-18T08:17:11;5.20;;;1.98;;
60935;SDS011;46804;51.786;19.520;2023-02-18T08:21:12;12.43;;;3.00;;
60935;SDS011;46804;51.786;19.520;2023-02-18T08:25:14;8.32;;;2.08;;
60935;SDS011;46804;51.786;19.520;2023-02-18T08:29:15;9.88;;;2.60;;
60935;SDS011;46804;51.786;19.520;2023-02-18T08:33:15;9.93;;;2.10;;
60935;SDS011;46804;51.786;19.520;2023-02-18T08:37:17;8.93;;;2.22;;
60935;SDS011;46804;51.786;19.520;2023-02-18T08:41:18;11.65;;;2.60;;
60935;SDS011;46804;51.786;19.520;2023-02-18T08:45:19;4.10;;;1.80;;
60935;SDS011;46804;51.786;19.520;2023-02-18T08:49:20;7.45;;;2.13;;
60935;SDS011;46804;51.786;19.520;2023-02-18T08:53:21;6.28;;;2.00;;
60935;SDS011;46804;51.786;19.520;2023-02-18T08:57:21;8.00;;;2.20;;
60935;SDS011;46804;51.786;19.520;2023-02-18T09:01:22;9.13;;;2.22;;
60935;SDS011;46804;51.786;19.520;2023-02-18T09:05:23;8.82;;;2.25;;
60935;SDS011;46804;51.786;19.520;2023-02-18T09:09:24;7.82;;;2.03;;
60935;SDS011;46804;51.786;19.520;2023-02-18T09:13:25;9.52;;;2.60;;
60935;SDS011;46804;51.786;19.520;2023-02-18T09:17:26;12.65;;;2.50;;
60935;SDS011;46804;51.786;19.520;2023-02-18T09:21:27;8.38;;;2.00;;
60935;SDS011;46804;51.786;19.520;2023-02-18T09:25:29;6.60;;;2.38;;
60935;SDS011;46804;51.786;19.520;2023-02-18T09:29:30;11.55;;;2.53;;
60935;SDS011;46804;51.786;19.520;2023-02-18T09:33:35;7.82;;;2.33;;
60935;SDS011;46804;51.786;19.520;2023-02-18T09:37:36;6.93;;;2.45;;
60935;SDS011;46804;51.786;19.520;2023-02-18T09:41:46;11.70;;;2.22;;
60935;SDS011;46804;51.786;19.520;2023-02-18T09:45:50;10.90;;;2.95;;
60935;SDS011;46804;51.786;19.520;2023-02-18T09:49:53;9.07;;;2.33;;
60935;SDS011;46804;51.786;19.520;2023-02-18T09:53:57;11.77;;;3.22;;
60935;SDS011;46804;51.786;19.520;2023-02-18T09:58:02;10.38;;;2.40;;
60935;SDS011;46804;51.786;19.520;2023-02-18T10:02:08;5.60;;;1.92;;
60935;SDS011;46804;51.786;19.520;2023-02-18T10:06:26;12.00;;;3.35;;
60935;SDS011;46804;51.786;19.520;2023-02-18T10:10:44;5.53;;;2.53;;
60935;SDS011;46804;51.786;19.520;2023-02-18T10:14:47;8.77;;;2.70;;
60935;SDS011;46804;51.786;19.520;2023-02-18T10:18:54;4.85;;;2.38;;
60935;SDS011;46804;51.786;19.520;2023-02-18T10:22:57;8.55;;;2.60;;
60935;SDS011;46804;51.786;19.520;2023-02-18T10:27:01;11.75;;;2.85;;
60935;SDS011;46804;51.786;19.520;2023-02-18T10:31:06;9.00;;;3.30;;
60935;SDS011;46804;51.786;19.520;2023-02-18T10:35:15;10.52;;;2.38;;
60935;SDS011;46804;51.786;19.520;2023-02-18T10:39:26;10.63;;;2.38;;
60935;SDS011;46804;51.786;19.520;2023-02-18T10:48:14;7.63;;;2.13;;
60935;SDS011;46804;51.786;19.520;2023-02-18T10:52:26;4.40;;;2.38;;
60935;SDS011;46804;51.786;19.520;2023-02-18T11:01:04;7.55;;;2.30;;
60935;SDS011;46804;51.786;19.520;2023-02-18T11:05:18;10.23;;;2.55;;
60935;SDS011;46804;51.786;19.520;2023-02-18T11:13:27;12.70;;;2.92;;
60935;SDS011;46804;51.786;19.520;2023-02-18T11:17:31;10.80;;;2.45;;
60935;SDS011;46804;51.786;19.520;2023-02-18T11:21:35;9.57;;;2.53;;
60935;SDS011;46804;51.786;19.520;2023-02-18T11:25:38;12.48;;;3.22;;
60935;SDS011;46804;51.786;19.520;2023-02-18T11:33:42;7.53;;;2.50;;
60935;SDS011;46804;51.786;19.520;2023-02-18T11:37:45;10.82;;;2.22;;
60935;SDS011;46804;51.786;19.520;2023-02-18T11:41:47;5.57;;;2.38;;
60935;SDS011;46804;51.786;19.520;2023-02-18T11:46:10;7.78;;;2.20;;
60935;SDS011;46804;51.786;19.520;2023-02-18T11:50:19;9.05;;;2.33;;
60935;SDS011;46804;51.786;19.520;2023-02-18T11:54:23;7.20;;;2.22;;
60935;SDS011;46804;51.786;19.520;2023-02-18T11:58:26;5.82;;;2.35;;
60935;SDS011;46804;51.786;19.520;2023-02-18T12:02:35;8.77;;;2.50;;
60935;SDS011;46804;51.786;19.520;2023-02-18T12:06:40;6.77;;;2.50;;
60935;SDS011;46804;51.786;19.520;2023-02-18T12:10:52;9.47;;;2.63;;
60935;SDS011;46804;51.786;19.520;2023-02-18T12:14:58;4.43;;;2.13;;
60935;SDS011;46804;51.786;19.520;2023-02-18T12:27:28;5.75;;;2.03;;
60935;SDS011;46804;51.786;19.520;2023-02-18T12:32:11;4.25;;;1.90;;
60935;SDS011;46804;51.786;19.520;2023-02-18T12:49:22;5.07;;;2.03;;
60935;SDS011;46804;51.786;19.520;2023-02-18T13:02:19;8.50;;;2.15;;
60935;SDS011;46804;51.786;19.520;2023-02-18T13:06:41;5.57;;;2.10;;
60935;SDS011;46804;51.786;19.520;2023-02-18T13:15:37;4.47;;;1.77;;
60935;SDS011;46804;51.786;19.520;2023-02-18T13:19:45;3.50;;;1.80;;
60935;SDS011;46804;51.786;19.520;2023-02-18T13:23:51;2.85;;;1.80;;
60935;SDS011;46804;51.786;19.520;2023-02-18T13:41:05;5.63;;;2.00;;
60935;SDS011;46804;51.786;19.520;2023-02-18T13:45:22;4.53;;;1.98;;
60935;SDS011;46804;51.786;19.520;2023-02-18T13:49:23;8.43;;;2.65;;
60935;SDS011;46804;51.786;19.520;2023-02-18T13:53:27;5.72;;;3.05;;
60935;SDS011;46804;51.786;19.520;2023-02-18T13:57:30;9.52;;;2.70;;
60935;SDS011;46804;51.786;19.520;2023-02-18T14:01:37;7.47;;;2.10;;
60935;SDS011;46804;51.786;19.520;2023-02-18T14:05:39;6.18;;;2.50;;
60935;SDS011;46804;51.786;19.520;2023-02-18T14:09:41;4.10;;;2.20;;
60935;SDS011;46804;51.786;19.520;2023-02-18T14:13:46;4.50;;;1.85;;
60935;SDS011;46804;51.786;19.520;2023-02-18T14:22:25;6.00;;;2.40;;
60935;SDS011;46804;51.786;19.520;2023-02-18T14:26:45;7.53;;;2.42;;
60935;SDS011;46804;51.786;19.520;2023-02-18T14:30:47;4.82;;;2.20;;
60935;SDS011;46804;51.786;19.520;2023-02-18T14:34:57;8.00;;;3.13;;
60935;SDS011;46804;51.786;19.520;2023-02-18T14:43:43;5.63;;;2.33;;
60935;SDS011;46804;51.786;19.520;2023-02-18T14:52:30;4.43;;;2.78;;
60935;SDS011;46804;51.786;19.520;2023-02-18T15:00:53;5.38;;;2.65;;
60935;SDS011;46804;51.786;19.520;2023-02-18T15:04:55;4.82;;;3.05;;
60935;SDS011;46804;51.786;19.520;2023-02-18T15:09:17;5.70;;;2.95;;
60935;SDS011;46804;51.786;19.520;2023-02-18T15:17:26;5.20;;;2.75;;
60935;SDS011;46804;51.786;19.520;2023-02-18T15:21:28;4.97;;;3.45;;
60935;SDS011;46804;51.786;19.520;2023-02-18T15:25:30;4.40;;;2.42;;
60935;SDS011;46804;51.786;19.520;2023-02-18T15:29:34;4.43;;;2.50;;
60935;SDS011;46804;51.786;19.520;2023-02-18T15:33:41;3.72;;;2.63;;
60935;SDS011;46804;51.786;19.520;2023-02-18T15:37:46;2.65;;;2.00;;
60935;SDS011;46804;51.786;19.520;2023-02-18T15:41:56;3.30;;;2.10;;
60935;SDS011;46804;51.786;19.520;2023-02-18T15:46:05;4.82;;;2.38;;
60935;SDS011;46804;51.786;19.520;2023-02-18T15:50:16;3.45;;;2.33;;
60935;SDS011;46804;51.786;19.520;2023-02-18T15:54:25;4.07;;;2.53;;
60935;SDS011;46804;51.786;19.520;2023-02-18T15:58:28;5.93;;;3.03;;
60935;SDS011;46804;51.786;19.520;2023-02-18T16:02:31;3.85;;;2.40;;
60935;SDS011;46804;51.786;19.520;2023-02-18T16:06:36;5.65;;;2.10;;
60935;SDS011;46804;51.786;19.520;2023-02-18T16:10:52;4.32;;;2.35;;
60935;SDS011;46804;51.786;19.520;2023-02-18T16:15:00;3.85;;;2.47;;
60935;SDS011;46804;51.786;19.520;2023-02-18T16:19:01;4.75;;;2.45;;
60935;SDS011;46804;51.786;19.520;2023-02-18T16:23:07;5.90;;;2.75;;
60935;SDS011;46804;51.786;19.520;2023-02-18T16:27:13;5.68;;;3.25;;
60935;SDS011;46804;51.786;19.520;2023-02-18T16:31:17;6.68;;;2.72;;
60935;SDS011;46804;51.786;19.520;2023-02-18T16:35:20;5.57;;;2.95;;
60935;SDS011;46804;51.786;19.520;2023-02-18T16:39:22;4.07;;;2.60;;
60935;SDS011;46804;51.786;19.520;2023-02-18T16:43:24;4.90;;;2.60;;
60935;SDS011;46804;51.786;19.520;2023-02-18T16:47:26;7.57;;;3.20;;
60935;SDS011;46804;51.786;19.520;2023-02-18T16:51:31;5.32;;;3.30;;
60935;SDS011;46804;51.786;19.520;2023-02-18T16:55:34;7.88;;;3.60;;
60935;SDS011;46804;51.786;19.520;2023-02-18T16:59:34;8.77;;;4.07;;
60935;SDS011;46804;51.786;19.520;2023-02-18T17:03:35;7.70;;;4.35;;
60935;SDS011;46804;51.786;19.520;2023-02-18T17:07:36;8.45;;;4.32;;
60935;SDS011;46804;51.786;19.520;2023-02-18T17:11:37;6.95;;;4.03;;
60935;SDS011;46804;51.786;19.520;2023-02-18T17:15:37;7.00;;;3.97;;
60935;SDS011;46804;51.786;19.520;2023-02-18T17:19:39;6.82;;;3.47;;
60935;SDS011;46804;51.786;19.520;2023-02-18T17:23:39;8.85;;;3.67;;
60935;SDS011;46804;51.786;19.520;2023-02-18T17:27:41;5.10;;;3.05;;
60935;SDS011;46804;51.786;19.520;2023-02-18T17:31:42;9.75;;;3.80;;
60935;SDS011;46804;51.786;19.520;2023-02-18T17:35:46;7.18;;;3.83;;
60935;SDS011;46804;51.786;19.520;2023-02-18T17:39:46;6.45;;;4.22;;
60935;SDS011;46804;51.786;19.520;2023-02-18T17:43:47;7.70;;;4.45;;
60935;SDS011;46804;51.786;19.520;2023-02-18T17:47:48;10.77;;;4.45;;
60935;SDS011;46804;51.786;19.520;2023-02-18T17:51:49;7.00;;;4.47;;
60935;SDS011;46804;51.786;19.520;2023-02-18T17:55:50;10.45;;;5.22;;
60935;SDS011;46804;51.786;19.520;2023-02-18T17:59:51;7.82;;;5.03;;
60935;SDS011;46804;51.786;19.520;2023-02-18T18:03:51;8.23;;;4.75;;
60935;SDS011;46804;51.786;19.520;2023-02-18T18:07:52;11.60;;;5.10;;
60935;SDS011;46804;51.786;19.520;2023-02-18T18:11:53;10.65;;;4.80;;
60935;SDS011;46804;51.786;19.520;2023-02-18T18:15:54;9.73;;;5.20;;
60935;SDS011;46804;51.786;19.520;2023-02-18T18:19:55;8.38;;;4.68;;
60935;SDS011;46804;51.786;19.520;2023-02-18T18:23:56;9.65;;;5.10;;
60935;SDS011;46804;51.786;19.520;2023-02-18T18:27:57;10.10;;;4.70;;
60935;SDS011;46804;51.786;19.520;2023-02-18T18:31:58;10.18;;;4.88;;
60935;SDS011;46804;51.786;19.520;2023-02-18T18:35:59;9.13;;;4.72;;
60935;SDS011;46804;51.786;19.520;2023-02-18T18:40:00;10.90;;;4.07;;
60935;SDS011;46804;51.786;19.520;2023-02-18T18:44:02;9.73;;;4.40;;
60935;SDS011;46804;51.786;19.520;2023-02-18T18:48:04;14.43;;;5.05;;
60935;SDS011;46804;51.786;19.520;2023-02-18T18:52:05;8.10;;;4.32;;
60935;SDS011;46804;51.786;19.520;2023-02-18T18:56:06;12.48;;;4.70;;
60935;SDS011;46804;51.786;19.520;2023-02-18T19:00:08;6.38;;;3.58;;
60935;SDS011;46804;51.786;19.520;2023-02-18T19:04:10;5.60;;;3.42;;
60935;SDS011;46804;51.786;19.520;2023-02-18T19:08:12;8.15;;;4.25;;
60935;SDS011;46804;51.786;19.520;2023-02-18T19:12:14;6.30;;;3.63;;
60935;SDS011;46804;51.786;19.520;2023-02-18T19:20:23;11.55;;;4.45;;
60935;SDS011;46804;51.786;19.520;2023-02-18T19:28:26;7.68;;;4.45;;
60935;SDS011;46804;51.786;19.520;2023-02-18T19:32:27;6.82;;;4.47;;
60935;SDS011;46804;51.786;19.520;2023-02-18T19:36:27;9.88;;;5.05;;
60935;SDS011;46804;51.786;19.520;2023-02-18T19:40:29;8.70;;;4.25;;
60935;SDS011;46804;51.786;19.520;2023-02-18T19:44:33;7.43;;;4.13;;
60935;SDS011;46804;51.786;19.520;2023-02-18T19:48:34;8.40;;;5.13;;
60935;SDS011;46804;51.786;19.520;2023-02-18T19:52:35;11.85;;;5.90;;
60935;SDS011;46804;51.786;19.520;2023-02-18T19:56:35;8.85;;;5.07;;
60935;SDS011;46804;51.786;19.520;2023-02-18T20:00:36;9.55;;;5.75;;
60935;SDS011;46804;51.786;19.520;2023-02-18T20:04:37;7.85;;;5.07;;
60935;SDS011;46804;51.786;19.520;2023-02-18T20:08:38;12.48;;;5.30;;
60935;SDS011;46804;51.786;19.520;2023-02-18T20:12:38;10.88;;;5.28;;
60935;SDS011;46804;51.786;19.520;2023-02-18T20:16:39;11.88;;;5.43;;
60935;SDS011;46804;51.786;19.520;2023-02-18T20:20:40;10.38;;;5.82;;
60935;SDS011;46804;51.786;19.520;2023-02-18T20:24:46;9.25;;;5.55;;
60935;SDS011;46804;51.786;19.520;2023-02-18T20:28:47;8.10;;;5.00;;
60935;SDS011;46804;51.786;19.520;2023-02-18T20:32:48;11.77;;;5.65;;
60935;SDS011;46804;51.786;19.520;2023-02-18T20:36:49;14.13;;;6.30;;
60935;SDS011;46804;51.786;19.520;2023-02-18T20:40:50;9.57;;;5.65;;
60935;SDS011;46804;51.786;19.520;2023-02-18T20:44:51;9.15;;;5.43;;
60935;SDS011;46804;51.786;19.520;2023-02-18T20:48:52;9.10;;;4.93;;
60935;SDS011;46804;51.786;19.520;2023-02-18T20:52:52;11.98;;;5.53;;
60935;SDS011;46804;51.786;19.520;2023-02-18T20:56:53;10.95;;;5.25;;
60935;SDS011;46804;51.786;19.520;2023-02-18T21:00:58;8.82;;;4.88;;
60935;SDS011;46804;51.786;19.520;2023-02-18T21:05:06;7.40;;;4.32;;
60935;SDS011;46804;51.786;19.520;2023-02-18T21:09:07;7.10;;;4.45;;
60935;SDS011;46804;51.786;19.520;2023-02-18T21:13:07;9.57;;;4.82;;
60935;SDS011;46804;51.786;19.520;2023-02-18T21:17:08;8.93;;;4.93;;
60935;SDS011;46804;51.786;19.520;2023-02-18T21:21:09;7.68;;;4.30;;
60935;SDS011;46804;51.786;19.520;2023-02-18T21:25:10;10.60;;;4.95;;
60935;SDS011;46804;51.786;19.520;2023-02-18T21:29:12;10.52;;;5.78;;
60935;SDS011;46804;51.786;19.520;2023-02-18T21:33:13;9.27;;;4.75;;
60935;SDS011;46804;51.786;19.520;2023-02-18T21:37:13;10.50;;;5.75;;
60935;SDS011;46804;51.786;19.520;2023-02-18T21:41:14;11.27;;;5.47;;
60935;SDS011;46804;51.786;19.520;2023-02-18T21:45:14;7.88;;;5.25;;
60935;SDS011;46804;51.786;19.520;2023-02-18T21:49:16;9.23;;;5.53;;
60935;SDS011;46804;51.786;19.520;2023-02-18T21:53:17;8.88;;;4.75;;
60935;SDS011;46804;51.786;19.520;2023-02-18T21:57:18;7.18;;;4.00;;
60935;SDS011;46804;51.786;19.520;2023-02-18T22:01:21;9.07;;;4.93;;
60935;SDS011;46804;51.786;19.520;2023-02-18T22:05:21;8.38;;;4.78;;
60935;SDS011;46804;51.786;19.520;2023-02-18T22:09:25;10.05;;;5.60;;
60935;SDS011;46804;51.786;19.520;2023-02-18T22:13:26;9.57;;;5.05;;
60935;SDS011;46804;51.786;19.520;2023-02-18T22:17:27;8.38;;;5.18;;
60935;SDS011;46804;51.786;19.520;2023-02-18T22:21:29;9.98;;;5.07;;
60935;SDS011;46804;51.786;19.520;2023-02-18T22:25:29;9.38;;;5.72;;
60935;SDS011;46804;51.786;19.520;2023-02-18T22:29:30;10.15;;;5.75;;
60935;SDS011;46804;51.786;19.520;2023-02-18T22:33:31;10.13;;;5.82;;
60935;SDS011;46804;51.786;19.520;2023-02-18T22:37:33;11.63;;;5.88;;
60935;SDS011;46804;51.786;19.520;2023-02-18T22:41:34;9.85;;;5.43;;
60935;SDS011;46804;51.786;19.520;2023-02-18T22:45:35;11.90;;;6.03;;
60935;SDS011;46804;51.786;19.520;2023-02-18T22:49:36;9.80;;;5.20;;
60935;SDS011;46804;51.786;19.520;2023-02-18T22:53:37;10.20;;;5.40;;
60935;SDS011;46804;51.786;19.520;2023-02-18T22:57:38;9.38;;;4.65;;
60935;SDS011;46804;51.786;19.520;2023-02-18T23:01:40;9.00;;;5.25;;
60935;SDS011;46804;51.786;19.520;2023-02-18T23:05:42;8.93;;;4.32;;
60935;SDS011;46804;51.786;19.520;2023-02-18T23:09:42;8.43;;;4.97;;
60935;SDS011;46804;51.786;19.520;2023-02-18T23:13:43;9.40;;;5.03;;
60935;SDS011;46804;51.786;19.520;2023-02-18T23:17:46;10.10;;;5.50;;
60935;SDS011;46804;51.786;19.520;2023-02-18T23:21:48;7.68;;;5.28;;
60935;SDS011;46804;51.786;19.520;2023-02-18T23:25:48;12.25;;;5.75;;
60935;SDS011;46804;51.786;19.520;2023-02-18T23:29:49;11.25;;;5.10;;
60935;SDS011;46804;51.786;19.520;2023-02-18T23:33:57;15.50;;;5.53;;
60935;SDS011;46804;51.786;19.520;2023-02-18T23:38:00;14.60;;;4.97;;
60935;SDS011;46804;51.786;19.520;2023-02-18T23:46:04;9.35;;;4.50;;
60935;SDS011;46804;51.786;19.520;2023-02-18T23:50:05;8.15;;;4.32;;
60935;SDS011;46804;51.786;19.520;2023-02-18T23:54:06;11.60;;;5.75;;
60935;SDS011;46804;51.786;19.520;2023-02-18T23:58:07;8.43;;;5.65;;
